Terminal Aerodrome Forecast
Issued by NWS Hastings, NE

Current Version | Previous Version | Text Only | Print | Product List | Glossary On
Versions: 1 2 3 4 5 6 7 8 9 10 11 12 13 14 15 16 17 18 19 20 21 22
000
FTUS45 KGID 290520
TAFEAR
TAF
KEAR 290520Z 2906/3006 VRB03KT P6SM VCSH SCT050 BKN200
     FM291000 14007KT P6SM VCTS SCT050CB BKN100
     FM291200 14007KT P6SM BKN200
     FM291800 15007KT P6SM SCT100
     FM300000 36008KT P6SM SCT200
      AMD LTD TO CLD VIS AND WIND=

USA.gov is the U.S. government's official web portal to all federal, state and local government web resources and services.